createdAt,value
2023-02-03T00:02:09.825Z,6.38
2023-02-03T00:04:36.638Z,5.40
2023-02-03T00:07:04.354Z,5.50
2023-02-03T00:09:31.455Z,5.68
2023-02-03T00:11:58.331Z,5.80
2023-02-03T00:14:25.181Z,5.18
2023-02-03T00:16:52.116Z,5.93
2023-02-03T00:19:18.989Z,5.78
2023-02-03T00:21:46.172Z,6.55
2023-02-03T00:24:13.111Z,9.38
2023-02-03T00:26:43.818Z,9.00
2023-02-03T00:29:11.525Z,9.07
2023-02-03T00:31:38.929Z,10.63
2023-02-03T00:34:06.005Z,9.32
2023-02-03T00:36:32.933Z,7.57
2023-02-03T00:39:01.503Z,7.20
2023-02-03T00:41:31.700Z,7.65
2023-02-03T00:43:58.654Z,5.88
2023-02-03T00:46:25.567Z,5.63
2023-02-03T00:48:52.521Z,6.90
2023-02-03T00:51:19.415Z,8.63
2023-02-03T00:53:49.418Z,6.60
2023-02-03T00:56:16.376Z,5.20
2023-02-03T00:58:43.316Z,5.13
2023-02-03T01:01:10.908Z,5.10
2023-02-03T01:03:38.303Z,4.95
2023-02-03T01:06:14.235Z,5.13
2023-02-03T01:08:42.243Z,5.70
2023-02-03T01:11:21.960Z,5.88
2023-02-03T01:13:50.667Z,6.47
2023-02-03T01:16:20.548Z,7.07
2023-02-03T01:18:48.425Z,7.90
2023-02-03T01:21:20.074Z,8.50
2023-02-03T01:23:47.451Z,8.25
2023-02-03T01:26:17.737Z,8.18
2023-02-03T01:28:45.175Z,8.60
2023-02-03T01:31:22.836Z,8.23
2023-02-03T01:33:52.200Z,8.07
2023-02-03T01:36:19.176Z,7.88
2023-02-03T01:38:46.753Z,9.00
2023-02-03T01:41:21.017Z,7.63
2023-02-03T01:43:56.783Z,7.80
2023-02-03T01:46:43.152Z,7.57
2023-02-03T01:49:23.808Z,7.70
2023-02-03T01:51:53.455Z,7.80
2023-02-03T01:54:29.001Z,7.38
2023-02-03T01:57:06.429Z,7.72
2023-02-03T01:59:36.721Z,7.28
2023-02-03T02:02:05.890Z,7.68
2023-02-03T02:04:51.190Z,6.85
2023-02-03T02:07:18.111Z,7.05
2023-02-03T02:09:46.766Z,6.55
2023-02-03T02:12:13.726Z,6.68
2023-02-03T02:14:42.871Z,6.43
2023-02-03T02:17:24.561Z,6.75
2023-02-03T02:20:43.905Z,6.68
2023-02-03T02:23:40.562Z,6.30
2023-02-03T02:26:47.319Z,5.82
2023-02-03T02:29:49.100Z,5.88
2023-02-03T02:32:40.277Z,5.10
2023-02-03T02:35:45.812Z,5.80
2023-02-03T02:38:36.512Z,5.63
2023-02-03T02:41:16.770Z,4.65
2023-02-03T02:44:00.458Z,5.07
2023-02-03T02:46:43.663Z,4.10
2023-02-03T02:49:35.451Z,4.30
2023-02-03T02:52:07.810Z,4.63
2023-02-03T02:54:40.935Z,4.00
2023-02-03T02:57:13.463Z,4.18
2023-02-03T02:59:40.388Z,4.13
2023-02-03T03:02:10.434Z,4.05
2023-02-03T03:04:37.957Z,4.75
2023-02-03T03:07:22.097Z,4.80
2023-02-03T03:09:55.491Z,4.47
2023-02-03T03:12:29.719Z,4.70
2023-02-03T03:15:08.249Z,4.63
2023-02-03T03:17:43.782Z,4.88
2023-02-03T03:20:18.985Z,4.78
2023-02-03T03:22:54.784Z,4.82
2023-02-03T03:25:29.979Z,4.93
2023-02-03T03:28:04.943Z,4.97
2023-02-03T03:30:38.951Z,4.90
2023-02-03T03:33:08.129Z,4.97
2023-02-03T03:36:27.182Z,5.13
2023-02-03T03:39:07.810Z,4.65
2023-02-03T03:41:43.471Z,5.05
2023-02-03T03:44:15.924Z,5.10
2023-02-03T03:46:52.031Z,4.97
2023-02-03T03:49:23.441Z,4.90
2023-02-03T03:52:02.866Z,5.65
2023-02-03T03:54:32.736Z,5.78
2023-02-03T03:57:19.609Z,6.00
2023-02-03T03:59:49.495Z,6.20
2023-02-03T04:02:20.377Z,6.35
2023-02-03T04:04:49.732Z,6.50
2023-02-03T04:07:16.632Z,6.82
2023-02-03T04:09:43.544Z,6.72
2023-02-03T04:12:39.587Z,7.10
2023-02-03T04:15:06.808Z,7.32
2023-02-03T04:17:36.125Z,6.78
2023-02-03T04:20:05.026Z,7.75
2023-02-03T04:22:31.957Z,7.40
2023-02-03T04:24:59.052Z,7.75
2023-02-03T04:27:27.368Z,7.65
2023-02-03T04:29:54.328Z,7.10
2023-02-03T04:32:21.188Z,7.07
2023-02-03T04:34:48.105Z,8.20
2023-02-03T04:37:14.996Z,7.63
2023-02-03T04:39:41.892Z,8.57
2023-02-03T04:42:08.789Z,8.18
2023-02-03T04:44:35.616Z,8.50
2023-02-03T04:47:02.414Z,8.27
2023-02-03T04:49:29.251Z,8.65
2023-02-03T04:51:56.119Z,7.70
2023-02-03T04:54:22.918Z,7.55
2023-02-03T04:56:49.775Z,8.18
2023-02-03T04:59:16.670Z,8.48
2023-02-03T05:01:43.543Z,8.13
2023-02-03T05:04:10.406Z,8.20
2023-02-03T05:06:37.267Z,7.40
2023-02-03T05:09:04.523Z,7.80
2023-02-03T05:11:31.535Z,7.82
2023-02-03T05:13:58.756Z,7.65
2023-02-03T05:16:25.657Z,8.07
2023-02-03T05:18:52.470Z,7.63
2023-02-03T05:21:19.335Z,8.88
2023-02-03T05:23:46.416Z,12.35
2023-02-03T05:26:13.347Z,12.18
2023-02-03T05:28:40.169Z,28.23
2023-02-03T05:31:07.156Z,17.60
2023-02-03T05:33:34.246Z,10.80
2023-02-03T05:36:01.060Z,9.55
2023-02-03T05:38:28.133Z,9.57
2023-02-03T05:41:13.367Z,10.07
2023-02-03T05:43:40.203Z,8.90
2023-02-03T05:46:07.939Z,10.27
2023-02-03T05:48:35.412Z,11.55
2023-02-03T05:51:02.371Z,11.18
2023-02-03T05:53:29.370Z,10.48
2023-02-03T05:55:56.236Z,9.32
2023-02-03T05:58:23.306Z,10.07
2023-02-03T06:00:50.226Z,10.32
2023-02-03T06:03:17.218Z,10.27
2023-02-03T06:05:44.963Z,8.63
2023-02-03T06:08:11.943Z,10.20
2023-02-03T06:10:38.905Z,8.93
2023-02-03T06:13:23.763Z,9.98
2023-02-03T06:15:50.572Z,9.00
2023-02-03T06:18:17.417Z,7.85
2023-02-03T06:20:44.276Z,8.07
2023-02-03T06:23:11.498Z,8.93
2023-02-03T06:25:38.341Z,8.95
2023-02-03T06:28:05.535Z,9.38
2023-02-03T06:30:32.436Z,8.95
2023-02-03T06:32:59.285Z,9.23
2023-02-03T06:35:26.135Z,9.27
2023-02-03T06:37:53.041Z,10.35
2023-02-03T06:40:20.151Z,10.30
2023-02-03T06:42:48.181Z,9.48
2023-02-03T06:45:15.533Z,10.27
2023-02-03T06:47:44.409Z,10.20
2023-02-03T06:50:15.748Z,9.75
2023-02-03T06:52:43.253Z,8.68
2023-02-03T06:55:11.013Z,11.23
2023-02-03T06:57:45.564Z,16.88
2023-02-03T07:00:16.765Z,11.90
2023-02-03T07:02:45.678Z,16.98
2023-02-03T07:05:12.614Z,13.88
2023-02-03T07:07:39.557Z,11.43
2023-02-03T07:10:08.078Z,10.88
2023-02-03T07:12:36.586Z,9.38
2023-02-03T07:15:05.385Z,9.63
2023-02-03T07:17:32.293Z,10.60
2023-02-03T07:20:01.642Z,10.85
2023-02-03T07:22:28.509Z,10.32
2023-02-03T07:24:55.428Z,11.75
2023-02-03T07:27:22.272Z,13.77
2023-02-03T07:29:49.083Z,11.23
2023-02-03T07:32:15.992Z,9.85
2023-02-03T07:34:42.840Z,9.23
2023-02-03T07:37:09.717Z,9.73
2023-02-03T07:39:36.563Z,9.52
2023-02-03T07:42:03.528Z,9.55
2023-02-03T07:44:30.551Z,10.55
2023-02-03T07:46:57.539Z,10.98
2023-02-03T07:49:24.420Z,11.65
2023-02-03T07:51:51.297Z,12.00
2023-02-03T07:54:18.277Z,11.93
2023-02-03T07:56:46.577Z,11.63
2023-02-03T07:59:13.556Z,12.98
2023-02-03T08:01:40.400Z,12.52
2023-02-03T08:04:07.448Z,12.18
2023-02-03T08:06:34.732Z,12.52
2023-02-03T08:09:01.638Z,12.45
2023-02-03T08:11:28.563Z,12.73
2023-02-03T08:13:55.431Z,12.68
2023-02-03T08:16:22.430Z,14.98
2023-02-03T08:18:49.315Z,14.48
2023-02-03T08:21:16.387Z,13.05
2023-02-03T08:23:43.262Z,12.13
2023-02-03T08:26:10.104Z,13.13
2023-02-03T08:28:36.995Z,16.25
2023-02-03T08:31:11.148Z,15.82
2023-02-03T08:33:38.643Z,13.20
2023-02-03T08:36:06.417Z,11.55
2023-02-03T08:38:33.600Z,12.18
2023-02-03T08:41:00.458Z,12.02
2023-02-03T08:43:27.419Z,14.35
2023-02-03T08:45:54.363Z,15.52
2023-02-03T08:48:21.317Z,11.55
2023-02-03T08:50:52.771Z,10.95
2023-02-03T08:53:19.773Z,10.00
2023-02-03T08:55:46.609Z,9.98
2023-02-03T08:58:13.494Z,11.35
2023-02-03T09:00:41.834Z,10.35
2023-02-03T09:03:11.679Z,11.05
2023-02-03T09:05:38.656Z,34.35
2023-02-03T09:08:05.835Z,13.20
2023-02-03T09:10:32.666Z,11.68
2023-02-03T09:12:59.506Z,11.68
2023-02-03T09:15:27.017Z,12.20
2023-02-03T09:17:55.333Z,12.82
2023-02-03T09:20:23.533Z,12.30
2023-02-03T09:22:50.451Z,12.45
2023-02-03T09:25:17.703Z,12.48
2023-02-03T09:27:44.586Z,12.52
2023-02-03T09:30:13.565Z,12.68
2023-02-03T09:32:40.416Z,14.15
2023-02-03T09:35:07.493Z,13.80
2023-02-03T09:37:34.379Z,12.02
2023-02-03T09:40:01.214Z,12.68
2023-02-03T09:42:52.901Z,12.00
2023-02-03T09:45:30.622Z,12.48
2023-02-03T09:48:09.237Z,12.02
2023-02-03T09:50:40.542Z,12.13
2023-02-03T09:53:30.133Z,12.77
2023-02-03T09:55:59.465Z,12.73
2023-02-03T09:58:32.970Z,13.50
2023-02-03T10:01:05.632Z,14.93
2023-02-03T10:03:58.210Z,15.80
2023-02-03T10:06:43.132Z,17.27
2023-02-03T10:09:19.630Z,16.60
2023-02-03T10:12:20.649Z,20.42
2023-02-03T10:15:04.229Z,18.38
2023-02-03T10:17:36.967Z,17.98
2023-02-03T10:20:22.079Z,17.92
2023-02-03T10:22:59.771Z,18.35
2023-02-03T10:25:33.960Z,18.13
2023-02-03T10:28:09.609Z,18.75
2023-02-03T10:31:16.027Z,18.02
2023-02-03T10:33:42.904Z,18.08
2023-02-03T10:36:23.598Z,19.30
2023-02-03T10:39:01.778Z,18.52
2023-02-03T10:41:31.000Z,18.98
2023-02-03T10:44:04.118Z,18.17
2023-02-03T10:46:35.340Z,19.38
2023-02-03T10:49:02.582Z,18.05
2023-02-03T10:52:04.917Z,19.38
2023-02-03T10:54:35.402Z,18.20
2023-02-03T10:57:07.243Z,18.25
2023-02-03T10:59:41.085Z,19.60
2023-02-03T11:02:30.240Z,19.48
2023-02-03T11:05:24.922Z,16.75
2023-02-03T11:07:53.096Z,18.10
2023-02-03T11:10:36.281Z,18.60
2023-02-03T11:13:21.575Z,18.25
2023-02-03T11:16:10.610Z,17.38
2023-02-03T11:18:48.559Z,17.05
2023-02-03T11:21:33.822Z,18.35
2023-02-03T11:24:36.950Z,18.52
2023-02-03T11:27:11.690Z,17.27
2023-02-03T11:29:44.794Z,16.40
2023-02-03T11:32:33.107Z,18.42
2023-02-03T11:35:15.216Z,18.15
2023-02-03T11:37:49.058Z,16.75
2023-02-03T11:40:15.908Z,16.05
2023-02-03T11:42:46.263Z,16.17
2023-02-03T11:45:41.841Z,16.15
2023-02-03T11:48:21.475Z,15.40
2023-02-03T11:51:19.016Z,14.88
2023-02-03T11:54:17.293Z,15.02
2023-02-03T11:57:05.190Z,14.48
2023-02-03T12:00:03.470Z,14.77
2023-02-03T12:03:12.548Z,16.20
2023-02-03T12:05:47.960Z,14.15
2023-02-03T12:08:32.821Z,15.65
2023-02-03T12:11:02.656Z,13.23
2023-02-03T12:13:44.742Z,13.68
2023-02-03T12:16:35.996Z,13.45
2023-02-03T12:19:19.496Z,13.10
2023-02-03T12:22:02.928Z,12.45
2023-02-03T12:25:20.119Z,11.77
2023-02-03T12:28:01.599Z,12.20
2023-02-03T12:30:38.504Z,12.85
2023-02-03T12:33:23.360Z,12.30
2023-02-03T12:36:18.483Z,13.45
2023-02-03T12:39:10.769Z,12.35
2023-02-03T12:42:05.887Z,14.93
2023-02-03T12:44:44.552Z,13.30
2023-02-03T12:47:28.277Z,12.75
2023-02-03T12:50:07.091Z,14.32
2023-02-03T12:52:48.245Z,15.48
2023-02-03T12:55:55.848Z,13.20
2023-02-03T12:58:52.019Z,12.90
2023-02-03T13:01:24.724Z,12.82
2023-02-03T13:04:20.979Z,13.05
2023-02-03T13:07:12.892Z,12.32
2023-02-03T13:10:14.316Z,13.90
2023-02-03T13:12:51.735Z,11.50
2023-02-03T13:15:43.297Z,12.70
2023-02-03T13:18:26.383Z,12.02
2023-02-03T13:23:22.848Z,8.48
2023-02-03T13:26:48.472Z,11.05
2023-02-03T13:29:39.695Z,9.77
2023-02-03T13:32:38.280Z,9.80
2023-02-03T13:35:35.276Z,9.13
2023-02-03T13:38:39.159Z,8.48
2023-02-03T13:41:15.899Z,6.78
2023-02-03T13:43:51.304Z,7.40
2023-02-03T13:46:27.950Z,6.45
2023-02-03T13:48:59.991Z,6.95
2023-02-03T13:51:46.045Z,6.40
2023-02-03T13:54:33.446Z,5.43
2023-02-03T13:57:35.136Z,6.60
2023-02-03T14:00:45.575Z,6.00
2023-02-03T14:03:36.575Z,6.57
2023-02-03T14:06:03.692Z,7.00
2023-02-03T14:08:30.482Z,6.20
2023-02-03T14:11:34.417Z,7.22
2023-02-03T14:14:07.510Z,6.75
2023-02-03T14:16:49.577Z,7.07
2023-02-03T14:19:22.747Z,7.47
2023-02-03T14:21:56.008Z,7.63
2023-02-03T14:24:29.875Z,7.07
2023-02-03T14:27:00.846Z,6.78
2023-02-03T14:29:36.656Z,7.63
2023-02-03T14:32:09.678Z,7.72
2023-02-03T14:37:32.713Z,7.33
2023-02-03T14:40:27.426Z,7.97
2023-02-03T14:43:18.923Z,7.95
2023-02-03T14:46:20.991Z,8.88
2023-02-03T14:49:28.304Z,9.70
2023-02-03T14:52:32.697Z,10.65
2023-02-03T14:55:02.554Z,10.70
2023-02-03T14:57:47.768Z,11.98
2023-02-03T15:00:21.664Z,13.15
2023-02-03T15:03:07.684Z,13.98
2023-02-03T15:05:38.912Z,14.18
2023-02-03T15:08:33.221Z,14.25
2023-02-03T15:11:01.105Z,14.38
2023-02-03T15:13:32.240Z,15.85
2023-02-03T15:16:03.324Z,16.85
2023-02-03T15:18:36.769Z,16.45
2023-02-03T15:21:05.357Z,17.25
2023-02-03T15:23:48.446Z,16.17
2023-02-03T15:28:59.592Z,16.23
2023-02-03T15:31:49.708Z,15.18
2023-02-03T15:34:25.118Z,16.70
2023-02-03T15:36:57.892Z,16.40
2023-02-03T15:39:45.442Z,17.75
2023-02-03T15:42:32.198Z,17.90
2023-02-03T15:45:18.314Z,17.05
2023-02-03T15:48:01.626Z,17.08
2023-02-03T15:50:40.130Z,17.67
2023-02-03T15:53:25.012Z,17.30
2023-02-03T15:55:59.493Z,18.13
2023-02-03T15:58:38.733Z,19.48
2023-02-03T16:01:17.719Z,19.00
2023-02-03T16:03:56.790Z,19.40
2023-02-03T16:06:37.103Z,18.70
2023-02-03T16:09:07.079Z,19.55
2023-02-03T16:11:38.616Z,20.13
2023-02-03T16:14:12.220Z,19.98
2023-02-03T16:16:55.222Z,20.73
2023-02-03T16:19:34.147Z,18.52
2023-02-03T16:22:01.347Z,18.98
2023-02-03T16:24:45.846Z,18.63
2023-02-03T16:27:27.527Z,17.63
2023-02-03T16:30:38.733Z,18.55
2023-02-03T16:33:34.919Z,18.15
2023-02-03T16:36:32.825Z,20.25
2023-02-03T16:39:29.325Z,18.75
2023-02-03T16:42:18.477Z,20.05
2023-02-03T16:45:04.925Z,20.67
2023-02-03T16:47:51.440Z,21.13
2023-02-03T16:50:40.773Z,21.73
2023-02-03T16:53:16.421Z,22.90
2023-02-03T16:55:45.999Z,25.20
2023-02-03T16:58:13.426Z,24.98
2023-02-03T17:00:45.567Z,25.38
2023-02-03T17:03:15.538Z,25.03
2023-02-03T17:05:45.291Z,23.65
2023-02-03T17:08:13.583Z,22.98
2023-02-03T17:10:43.931Z,23.40
2023-02-03T17:13:12.372Z,22.02
2023-02-03T17:15:48.922Z,21.13
2023-02-03T17:18:16.370Z,47.28
2023-02-03T17:20:45.256Z,19.30
2023-02-03T17:23:16.261Z,19.23
2023-02-03T17:25:50.550Z,18.05
2023-02-03T17:28:18.007Z,17.30
2023-02-03T17:30:45.344Z,17.00
2023-02-03T17:33:14.341Z,16.13
2023-02-03T17:35:44.407Z,16.27
2023-02-03T17:38:14.930Z,16.48
2023-02-03T17:54:43.468Z,16.55
2023-02-03T17:57:10.359Z,18.55
2023-02-03T17:59:38.152Z,19.02
2023-02-03T18:02:05.143Z,17.83
2023-02-03T18:04:32.435Z,18.00
2023-02-03T18:06:59.430Z,18.70
2023-02-03T18:09:26.574Z,18.92
2023-02-03T18:11:53.696Z,18.08
2023-02-03T18:14:20.673Z,17.77
2023-02-03T18:16:47.830Z,17.85
2023-02-03T18:19:16.568Z,18.70
2023-02-03T18:21:44.252Z,17.88
2023-02-03T18:24:13.922Z,19.48
2023-02-03T18:26:51.859Z,18.42
2023-02-03T18:29:19.325Z,16.77
2023-02-03T18:31:47.933Z,16.42
2023-02-03T18:34:16.999Z,16.67
2023-02-03T18:36:45.215Z,16.88
2023-02-03T18:39:14.686Z,16.10
2023-02-03T18:41:41.799Z,15.65
2023-02-03T18:44:09.117Z,15.43
2023-02-03T18:46:36.041Z,13.95
2023-02-03T18:49:03.588Z,14.57
2023-02-03T18:51:30.649Z,15.40
2023-02-03T18:53:59.670Z,15.88
2023-02-03T18:56:35.802Z,14.95
2023-02-03T18:59:09.758Z,14.63
2023-02-03T19:01:38.912Z,13.30
2023-02-03T19:04:07.282Z,12.88
2023-02-03T19:06:35.824Z,12.77
2023-02-03T19:09:05.865Z,13.05
2023-02-03T19:11:33.764Z,12.27
2023-02-03T19:14:00.765Z,12.85
2023-02-03T19:16:27.904Z,13.10
2023-02-03T19:18:54.888Z,13.38
2023-02-03T19:21:21.783Z,13.60
2023-02-03T19:23:48.853Z,12.20
2023-02-03T19:26:15.760Z,12.75
2023-02-03T19:28:42.878Z,12.13
2023-02-03T19:31:15.599Z,11.32
2023-02-03T19:33:42.887Z,10.82
2023-02-03T19:36:11.783Z,10.07
2023-02-03T19:38:38.908Z,12.52
2023-02-03T19:41:07.581Z,11.73
2023-02-03T19:43:35.073Z,12.38
2023-02-03T19:46:02.791Z,12.23
2023-02-03T19:48:29.922Z,13.45
2023-02-03T19:50:57.274Z,12.68
2023-02-03T19:53:24.697Z,13.82
2023-02-03T19:55:52.677Z,12.68
2023-02-03T19:58:19.735Z,13.20
2023-02-03T20:00:46.957Z,11.68
2023-02-03T20:03:14.248Z,11.85
2023-02-03T20:05:41.220Z,12.27
2023-02-03T20:08:13.097Z,11.68
2023-02-03T20:10:42.581Z,13.48
2023-02-03T20:13:10.942Z,13.25
2023-02-03T20:15:38.361Z,12.98
2023-02-03T20:18:08.121Z,12.18
2023-02-03T20:20:36.522Z,13.98
2023-02-03T20:23:03.803Z,13.23
2023-02-03T20:25:30.946Z,14.25
2023-02-03T20:27:59.612Z,13.85
2023-02-03T20:30:26.998Z,14.20
2023-02-03T20:32:59.509Z,12.57
2023-02-03T20:35:27.509Z,11.05
2023-02-03T20:37:54.537Z,12.13
2023-02-03T20:40:24.173Z,11.63
2023-02-03T20:42:53.193Z,11.25
2023-02-03T20:45:23.345Z,10.90
2023-02-03T20:47:51.650Z,9.50
2023-02-03T20:50:25.245Z,10.93
2023-02-03T20:52:56.195Z,11.77
2023-02-03T20:55:24.427Z,12.10
2023-02-03T20:57:54.526Z,11.73
2023-02-03T21:00:26.050Z,12.23
2023-02-03T21:03:11.823Z,11.98
2023-02-03T21:05:42.895Z,13.40
2023-02-03T21:08:16.768Z,9.85
2023-02-03T21:10:46.245Z,11.18
2023-02-03T21:13:29.116Z,10.88
2023-02-03T21:16:03.135Z,12.70
2023-02-03T21:18:32.911Z,11.52
2023-02-03T21:21:01.035Z,14.13
2023-02-03T21:23:42.063Z,13.27
2023-02-03T21:26:25.443Z,11.98
2023-02-03T21:28:59.034Z,12.50
2023-02-03T21:31:33.892Z,11.48
2023-02-03T21:34:05.778Z,11.18
2023-02-03T21:36:37.908Z,10.77
2023-02-03T21:39:27.825Z,11.18
2023-02-03T21:41:56.130Z,10.60
2023-02-03T21:44:36.072Z,9.82
2023-02-03T21:47:15.145Z,10.80
2023-02-03T21:49:42.694Z,10.20
2023-02-03T21:52:16.296Z,11.68
2023-02-03T21:54:44.385Z,10.23
2023-02-03T21:57:15.372Z,11.10
2023-02-03T21:59:48.740Z,9.38
2023-02-03T22:03:00.966Z,9.80
2023-02-03T22:05:30.122Z,8.35
2023-02-03T22:07:57.657Z,7.22
2023-02-03T22:10:25.074Z,8.82
2023-02-03T22:12:52.605Z,8.23
2023-02-03T22:15:22.981Z,4.80
2023-02-03T22:17:51.022Z,8.00
2023-02-03T22:20:18.472Z,7.25
2023-02-03T22:22:45.366Z,6.47
2023-02-03T22:25:12.463Z,7.32
2023-02-03T22:27:39.331Z,8.13
2023-02-03T22:30:07.103Z,9.70
2023-02-03T22:32:34.227Z,9.75
2023-02-03T22:35:01.103Z,9.55
2023-02-03T22:37:28.350Z,10.35
2023-02-03T22:39:55.250Z,11.07
2023-02-03T22:42:22.339Z,10.27
2023-02-03T22:44:49.317Z,10.43
2023-02-03T22:47:16.288Z,10.73
2023-02-03T22:49:43.140Z,10.27
2023-02-03T22:52:10.140Z,10.52
2023-02-03T22:54:37.009Z,10.15
2023-02-03T22:57:03.876Z,10.18
2023-02-03T22:59:30.742Z,9.25
2023-02-03T23:01:57.570Z,10.45
2023-02-03T23:04:24.501Z,10.05
2023-02-03T23:06:51.390Z,10.30
2023-02-03T23:09:18.361Z,11.68
2023-02-03T23:11:45.378Z,10.63
2023-02-03T23:14:13.724Z,10.38
2023-02-03T23:16:40.541Z,9.65
2023-02-03T23:19:07.355Z,10.57
2023-02-03T23:21:34.328Z,9.95
2023-02-03T23:24:01.229Z,10.30
2023-02-03T23:26:28.127Z,10.45
2023-02-03T23:28:55.007Z,10.18
2023-02-03T23:31:21.912Z,10.23
2023-02-03T23:34:07.156Z,10.52
2023-02-03T23:36:34.116Z,11.10
2023-02-03T23:39:00.972Z,10.55
2023-02-03T23:41:27.944Z,10.05
2023-02-03T23:43:54.778Z,10.15
2023-02-03T23:46:21.715Z,10.88
2023-02-03T23:48:48.595Z,10.65
2023-02-03T23:51:15.437Z,10.57
2023-02-03T23:53:42.288Z,11.27
2023-02-03T23:56:09.140Z,10.15
2023-02-03T23:58:35.967Z,10.52
